LP2426 SPJC-SPZO
Flight info
| Callsign | LP2426 |
|---|---|
| Flight time | N/A |
| Altitude | 33000 |
| Route | PAKOL5 PAKOL UM668 POVLO DARKI SDARK |
| Aircraft | A320/M-SDFGHIRWY/LB1 |
Departure
| Time | 2026-05-04 19:27 |
|---|---|
| Airport | Jorge Chávez International Airport (SPJC) |
Arrival
| Time | N/A |
|---|---|
| Airport | Alejandro Velasco Astete International Airport (SPZO) |
| Time | Latitude | Longitude | Altitude | Speed | Heading |
|---|---|---|---|---|---|
| 2026-05-04 19:05 | -12.02442 | -77.11629 | 128 ft | 0 kts | 65° |
| 2026-05-04 19:12 | -12.02441 | -77.11626 | 128 ft | 0 kts | 64° |
| 2026-05-04 19:13 | -12.02445 | -77.11633 | 129 ft | 3 kts | 63° |
| 2026-05-04 19:13 | -12.02455 | -77.11655 | 128 ft | 3 kts | 65° |
| 2026-05-04 19:13 | -12.02466 | -77.11680 | 128 ft | 3 kts | 64° |
| 2026-05-04 19:14 | -12.02476 | -77.11704 | 128 ft | 3 kts | 62° |
| 2026-05-04 19:14 | -12.02481 | -77.11713 | 128 ft | 0 kts | 61° |
| 2026-05-04 19:19 | -12.02481 | -77.11712 | 128 ft | 0 kts | 57° |
| 2026-05-04 19:19 | -12.02476 | -77.11703 | 128 ft | 3 kts | 62° |
| 2026-05-04 19:19 | -12.02470 | -77.11697 | 128 ft | 4 kts | 36° |
| 2026-05-04 19:20 | -12.02429 | -77.11701 | 128 ft | 6 kts | 338° |
| 2026-05-04 19:20 | -12.02383 | -77.11703 | 128 ft | 7 kts | 36° |
| 2026-05-04 19:20 | -12.02354 | -77.11656 | 128 ft | 8 kts | 63° |
| 2026-05-04 19:20 | -12.02306 | -77.11632 | 128 ft | 10 kts | 354° |
| 2026-05-04 19:21 | -12.02204 | -77.11678 | 128 ft | 21 kts | 332° |
| 2026-05-04 19:21 | -12.02051 | -77.11757 | 128 ft | 27 kts | 333° |
| 2026-05-04 19:21 | -12.01896 | -77.11834 | 128 ft | 16 kts | 334° |
| 2026-05-04 19:21 | -12.01802 | -77.11809 | 128 ft | 14 kts | 11° |
| 2026-05-04 19:22 | -12.01702 | -77.11842 | 128 ft | 15 kts | 333° |
| 2026-05-04 19:22 | -12.01582 | -77.11904 | 128 ft | 25 kts | 334° |
| 2026-05-04 19:22 | -12.01401 | -77.11993 | 128 ft | 30 kts | 334° |
| 2026-05-04 19:22 | -12.01242 | -77.12119 | 128 ft | 28 kts | 308° |
| 2026-05-04 19:23 | -12.01086 | -77.12222 | 128 ft | 26 kts | 334° |
| 2026-05-04 19:23 | -12.00928 | -77.12302 | 128 ft | 24 kts | 333° |
| 2026-05-04 19:23 | -12.00828 | -77.12241 | 128 ft | 17 kts | 66° |
| 2026-05-04 19:23 | -12.00815 | -77.12113 | 128 ft | 19 kts | 136° |
| 2026-05-04 19:24 | -12.00849 | -77.12092 | 128 ft | 0 kts | 153° |
| 2026-05-04 19:26 | -12.00907 | -77.12064 | 128 ft | 0 kts | 154° |
| 2026-05-04 19:26 | -12.01090 | -77.11975 | 128 ft | 62 kts | 155° |
| 2026-05-04 19:27 | -12.01648 | -77.11702 | 129 ft | 118 kts | 154° |
| 2026-05-04 19:27 | -12.02469 | -77.11298 | 130 ft | 161 kts | 154° |
| 2026-05-04 19:27 | -12.03519 | -77.10765 | 333 ft | 178 kts | 155° |
| 2026-05-04 19:27 | -12.04665 | -77.10201 | 754 ft | 184 kts | 155° |
| 2026-05-04 19:28 | -12.05724 | -77.09682 | 1332 ft | 179 kts | 155° |
| 2026-05-04 19:28 | -12.06820 | -77.09145 | 1849 ft | 179 kts | 154° |
| 2026-05-04 19:28 | -12.07999 | -77.08566 | 2100 ft | 199 kts | 154° |
| 2026-05-04 19:28 | -12.09276 | -77.07935 | 2384 ft | 219 kts | 154° |
| 2026-05-04 19:29 | -12.10680 | -77.07243 | 2775 ft | 236 kts | 153° |
| 2026-05-04 19:29 | -12.12210 | -77.06488 | 3185 ft | 254 kts | 153° |
| 2026-05-04 19:29 | -12.13838 | -77.05683 | 3635 ft | 270 kts | 153° |
| 2026-05-04 19:29 | -12.15521 | -77.04851 | 4315 ft | 276 kts | 153° |
| 2026-05-04 19:30 | -12.17245 | -77.03999 | 5061 ft | 279 kts | 153° |
| 2026-05-04 19:30 | -12.18975 | -77.03145 | 5752 ft | 283 kts | 153° |
| 2026-05-04 19:30 | -12.20736 | -77.02274 | 6406 ft | 288 kts | 153° |
| 2026-05-04 19:30 | -12.22542 | -77.01379 | 7035 ft | 292 kts | 152° |
| 2026-05-04 19:31 | -12.24169 | -77.00213 | 7651 ft | 294 kts | 132° |
| 2026-05-04 19:31 | -12.25321 | -76.98516 | 8308 ft | 293 kts | 116° |
| 2026-05-04 19:31 | -12.26216 | -76.96648 | 8811 ft | 296 kts | 114° |
| 2026-05-04 19:31 | -12.27089 | -76.94752 | 9384 ft | 299 kts | 114° |
| 2026-05-04 19:32 | -12.27982 | -76.92833 | 9892 ft | 301 kts | 114° |
| 2026-05-04 19:32 | -12.28902 | -76.90883 | 10402 ft | 306 kts | 114° |
| 2026-05-04 19:32 | -12.29845 | -76.88903 | 10643 ft | 319 kts | 115° |
| 2026-05-04 19:32 | -12.30835 | -76.86836 | 10973 ft | 331 kts | 115° |
| 2026-05-04 19:33 | -12.31858 | -76.84708 | 11389 ft | 335 kts | 115° |
| 2026-05-04 19:33 | -12.32877 | -76.82595 | 11827 ft | 336 kts | 115° |
| 2026-05-04 19:33 | -12.33909 | -76.80454 | 12347 ft | 337 kts | 115° |
| 2026-05-04 19:33 | -12.34939 | -76.78315 | 12728 ft | 339 kts | 115° |
| 2026-05-04 19:34 | -12.35985 | -76.76144 | 13161 ft | 340 kts | 115° |
| 2026-05-04 19:34 | -12.37025 | -76.73988 | 13623 ft | 341 kts | 115° |
| 2026-05-04 19:34 | -12.38075 | -76.71809 | 14052 ft | 343 kts | 115° |
| 2026-05-04 19:34 | -12.39112 | -76.69656 | 14515 ft | 345 kts | 115° |
| 2026-05-04 19:35 | -12.40181 | -76.67436 | 14855 ft | 347 kts | 115° |
| 2026-05-04 19:35 | -12.41254 | -76.65207 | 15263 ft | 348 kts | 115° |
| 2026-05-04 19:35 | -12.42322 | -76.62987 | 15772 ft | 349 kts | 114° |
| 2026-05-04 19:35 | -12.43394 | -76.60770 | 16235 ft | 351 kts | 115° |
| 2026-05-04 19:36 | -12.44471 | -76.58553 | 16626 ft | 353 kts | 115° |
| 2026-05-04 19:36 | -12.45567 | -76.56296 | 16991 ft | 356 kts | 114° |
| 2026-05-04 19:36 | -12.46680 | -76.53998 | 17255 ft | 361 kts | 114° |
| 2026-05-04 19:36 | -12.47792 | -76.51701 | 17638 ft | 364 kts | 114° |
| 2026-05-04 19:37 | -12.48914 | -76.49386 | 18037 ft | 366 kts | 115° |
| 2026-05-04 19:37 | -12.50052 | -76.47034 | 18384 ft | 368 kts | 115° |
| 2026-05-04 19:37 | -12.51195 | -76.44674 | 18803 ft | 370 kts | 115° |
| 2026-05-04 19:37 | -12.52336 | -76.42317 | 19162 ft | 372 kts | 115° |
| 2026-05-04 19:38 | -12.53483 | -76.39946 | 19567 ft | 373 kts | 114° |
| 2026-05-04 19:38 | -12.54627 | -76.37579 | 19951 ft | 375 kts | 115° |
| 2026-05-04 19:38 | -12.55790 | -76.35176 | 20311 ft | 377 kts | 115° |
| 2026-05-04 19:38 | -12.56959 | -76.32759 | 20685 ft | 379 kts | 115° |
| 2026-05-04 19:39 | -12.58113 | -76.30371 | 21052 ft | 380 kts | 114° |
| 2026-05-04 19:39 | -12.59280 | -76.27953 | 21387 ft | 382 kts | 114° |
| 2026-05-04 19:39 | -12.60470 | -76.25491 | 21742 ft | 384 kts | 115° |
| 2026-05-04 19:39 | -12.61650 | -76.23047 | 22078 ft | 386 kts | 115° |
| 2026-05-04 19:40 | -12.62837 | -76.20587 | 22394 ft | 388 kts | 115° |
| 2026-05-04 19:40 | -12.64039 | -76.18098 | 22698 ft | 390 kts | 115° |
| 2026-05-04 19:40 | -12.65226 | -76.15641 | 22989 ft | 391 kts | 115° |
| 2026-05-04 19:40 | -12.66433 | -76.13137 | 23290 ft | 393 kts | 114° |
| 2026-05-04 19:41 | -12.67653 | -76.10608 | 23561 ft | 396 kts | 115° |
| 2026-05-04 19:41 | -12.68862 | -76.08098 | 23832 ft | 398 kts | 114° |
| 2026-05-04 19:41 | -12.70094 | -76.05544 | 24107 ft | 401 kts | 114° |
| 2026-05-04 19:41 | -12.71328 | -76.02980 | 24386 ft | 403 kts | 114° |
| 2026-05-04 19:42 | -12.72566 | -76.00410 | 24659 ft | 405 kts | 114° |
| 2026-05-04 19:42 | -12.73741 | -75.97784 | 24922 ft | 407 kts | 110° |
| 2026-05-04 19:42 | -12.74722 | -75.95071 | 25176 ft | 408 kts | 106° |
| 2026-05-04 19:42 | -12.75495 | -75.92287 | 25445 ft | 409 kts | 102° |
| 2026-05-04 19:43 | -12.76165 | -75.89461 | 25700 ft | 411 kts | 101° |
| 2026-05-04 19:43 | -12.76824 | -75.86617 | 25945 ft | 413 kts | 101° |
| 2026-05-04 19:43 | -12.77480 | -75.83785 | 26193 ft | 415 kts | 101° |
| 2026-05-04 19:43 | -12.78154 | -75.80875 | 26446 ft | 417 kts | 101° |
| 2026-05-04 19:44 | -12.78830 | -75.77979 | 26710 ft | 419 kts | 101° |
| 2026-05-04 19:44 | -12.79505 | -75.75079 | 26978 ft | 422 kts | 101° |
| 2026-05-04 19:44 | -12.80181 | -75.72187 | 27235 ft | 423 kts | 101° |
| 2026-05-04 19:44 | -12.80866 | -75.69263 | 27488 ft | 425 kts | 101° |
| 2026-05-04 19:45 | -12.81557 | -75.66305 | 27740 ft | 427 kts | 101° |
| 2026-05-04 19:45 | -12.82245 | -75.63357 | 27974 ft | 429 kts | 101° |
| 2026-05-04 19:45 | -12.82944 | -75.60365 | 28217 ft | 432 kts | 101° |
| 2026-05-04 19:45 | -12.83638 | -75.57396 | 28464 ft | 434 kts | 101° |
| 2026-05-04 19:46 | -12.84334 | -75.54415 | 28696 ft | 436 kts | 101° |
| 2026-05-04 19:46 | -12.85045 | -75.51367 | 28926 ft | 438 kts | 101° |
| 2026-05-04 19:46 | -12.85746 | -75.48363 | 29171 ft | 440 kts | 101° |
| 2026-05-04 19:46 | -12.86463 | -75.45287 | 29424 ft | 441 kts | 101° |
| 2026-05-04 19:47 | -12.87168 | -75.42259 | 29657 ft | 443 kts | 101° |
| 2026-05-04 19:47 | -12.87880 | -75.39197 | 29903 ft | 445 kts | 101° |
| 2026-05-04 19:47 | -12.88596 | -75.36119 | 30150 ft | 446 kts | 101° |
| 2026-05-04 19:47 | -12.89321 | -75.32999 | 30390 ft | 448 kts | 101° |
| 2026-05-04 19:48 | -12.90036 | -75.29929 | 30619 ft | 449 kts | 100° |
| 2026-05-04 19:48 | -12.90756 | -75.26823 | 30836 ft | 451 kts | 101° |
| 2026-05-04 19:48 | -12.91484 | -75.23691 | 31064 ft | 452 kts | 100° |
| 2026-05-04 19:48 | -12.92215 | -75.20544 | 31289 ft | 454 kts | 100° |
| 2026-05-04 19:49 | -12.92940 | -75.17417 | 31554 ft | 454 kts | 100° |
| 2026-05-04 19:49 | -12.93666 | -75.14284 | 31866 ft | 453 kts | 100° |
| 2026-05-04 19:49 | -12.94392 | -75.11153 | 32164 ft | 452 kts | 100° |
| 2026-05-04 19:49 | -12.94866 | -75.09106 | 32342 ft | 452 kts | 100° |